Time;durP1;ratioP1;P1;durP2;ratioP2;P2;SDS_P1;SDS_P2;PMS_P1;PMS_P2;Temp;Humidity;BMP_temperature;BMP_pressure;BME280_temperature;BME280_humidity;BME280_pressure;Samples;Min_cycle;Max_cycle;Signal;HPM_P1;HPM_P2
2023/03/24 00:03:01;;;;;;;12.60;7.30;;;;;;;12.46;78.97;99926.77;104625;1270;97897;-75
2023/03/24 00:05:57;;;;;;;11.20;7.40;;;;;;;12.45;79.00;99927.48;104550;1270;101410;-76
2023/03/24 00:08:46;;;;;;;11.00;7.20;;;;;;;12.44;79.27;99927.98;104536;1270;99173;-76
2023/03/24 00:11:35;;;;;;;10.00;6.20;;;;;;;12.43;79.19;99924.55;104583;1270;98523;-76
2023/03/24 00:14:20;;;;;;;12.40;7.90;;;;;;;12.41;79.14;99926.34;104581;1271;97987;-76
2023/03/24 00:17:08;;;;;;;11.20;7.50;;;;;;;12.39;79.18;99933.49;104697;1277;98530;-76
2023/03/24 00:19:55;;;;;;;8.70;6.90;;;;;;;12.36;79.13;99934.58;105833;1270;102191;-76
2023/03/24 00:22:47;;;;;;;9.60;6.20;;;;;;;12.33;79.26;99933.11;104587;1270;99146;-77
2023/03/24 00:25:35;;;;;;;11.00;7.20;;;;;;;12.29;79.50;99932.55;104482;1269;99369;-76
2023/03/24 00:28:21;;;;;;;10.40;6.60;;;;;;;12.27;79.45;99929.21;104635;1276;98083;-75
2023/03/24 00:31:08;;;;;;;11.90;7.50;;;;;;;12.26;79.43;99928.52;104557;1268;98509;-76
2023/03/24 00:33:53;;;;;;;11.60;7.60;;;;;;;12.25;79.30;99922.90;104444;1273;101349;-77
2023/03/24 00:36:39;;;;;;;12.20;7.50;;;;;;;12.24;79.35;99921.66;104486;1272;100592;-76
2023/03/24 00:39:24;;;;;;;12.10;7.50;;;;;;;12.22;79.40;99921.77;104689;1267;98480;-76
2023/03/24 00:42:10;;;;;;;11.90;7.20;;;;;;;12.19;79.48;99923.88;104531;1271;98005;-76
2023/03/24 00:44:55;;;;;;;12.60;7.60;;;;;;;12.17;79.60;99923.35;107607;1264;96067;-78
2023/03/24 00:47:43;;;;;;;10.90;7.00;;;;;;;12.12;79.62;99922.71;104941;1269;101571;-77
2023/03/24 00:50:32;;;;;;;10.00;6.80;;;;;;;12.09;79.74;99922.89;104651;1269;100330;-76
2023/03/24 00:53:18;;;;;;;11.00;7.80;;;;;;;12.05;79.79;99921.05;105087;1267;98158;-76
2023/03/24 00:56:03;;;;;;;15.70;7.80;;;;;;;12.01;79.85;99919.16;104619;1270;98494;-77
2023/03/24 00:58:49;;;;;;;12.50;8.00;;;;;;;11.97;79.92;99912.16;104702;1267;98404;-76
2023/03/24 01:01:36;;;;;;;11.40;7.50;;;;;;;11.95;79.85;99912.96;104754;1269;102601;-76
2023/03/24 01:04:25;;;;;;;14.60;8.20;;;;;;;11.92;79.86;99908.70;104722;1269;100187;-76
2023/03/24 01:07:10;;;;;;;11.20;6.80;;;;;;;11.91;80.13;99905.91;104612;1264;99050;-76
2023/03/24 01:09:56;;;;;;;13.00;8.20;;;;;;;11.88;80.18;99905.46;104719;1269;98065;-77
2023/03/24 01:12:42;;;;;;;11.90;7.70;;;;;;;11.88;80.43;99903.31;104647;1268;97951;-77
2023/03/24 01:15:32;;;;;;;14.40;8.00;;;;;;;11.87;80.37;99901.30;104699;1272;101387;-77
2023/03/24 01:18:18;;;;;;;14.00;8.60;;;;;;;11.86;80.32;99902.13;104607;1269;99820;-77
2023/03/24 01:21:04;;;;;;;56.60;37.10;;;;;;;11.84;80.09;99900.39;104624;1268;98982;-76
2023/03/24 01:23:49;;;;;;;19.60;12.30;;;;;;;11.80;80.21;99898.39;104627;1277;98068;-77
2023/03/24 01:26:35;;;;;;;16.10;10.50;;;;;;;11.76;80.45;99897.73;104673;1267;99582;-75
2023/03/24 01:29:20;;;;;;;13.00;8.70;;;;;;;11.75;80.44;99899.94;104635;1270;101458;-75
2023/03/24 01:32:06;;;;;;;12.00;8.80;;;;;;;11.74;80.44;99895.98;104578;1270;99674;-75
2023/03/24 01:34:52;;;;;;;10.10;7.50;;;;;;;11.73;80.44;99893.17;104620;1269;97999;-77
2023/03/24 01:37:38;;;;;;;13.80;8.00;;;;;;;11.72;80.21;99889.59;104629;1272;98052;-77
2023/03/24 01:40:29;;;;;;;15.40;7.90;;;;;;;11.71;80.20;99886.94;104572;1270;98534;-75
2023/03/24 01:43:21;;;;;;;10.90;7.90;;;;;;;11.70;80.16;99885.84;104871;1279;101390;-78
2023/03/24 01:46:22;;;;;;;12.60;8.60;;;;;;;11.68;80.31;99882.25;104713;1270;99097;-76
2023/03/24 01:49:08;;;;;;;15.40;8.70;;;;;;;11.66;80.24;99879.69;105518;1266;97975;-77
2023/03/24 01:51:58;;;;;;;14.50;8.20;;;;;;;11.58;79.97;99885.84;104639;1269;97966;-76
2023/03/24 01:54:54;;;;;;;10.90;7.50;;;;;;;11.45;79.91;99884.87;104675;1264;98539;-75
2023/03/24 01:57:46;;;;;;;14.80;8.10;;;;;;;11.34;79.91;99880.23;104606;1270;103649;-77
2023/03/24 02:00:33;;;;;;;12.40;7.50;;;;;;;11.24;79.70;99879.84;104534;1271;100339;-76
2023/03/24 02:03:39;;;;;;;14.80;9.10;;;;;;;11.16;80.06;99880.38;104562;1265;98042;-77
2023/03/24 02:06:25;;;;;;;16.00;9.20;;;;;;;11.09;80.17;99878.41;104602;1269;97977;-76
2023/03/24 02:09:13;;;;;;;19.80;11.20;;;;;;;11.05;80.13;99878.30;104696;1264;98529;-77
2023/03/24 02:11:59;;;;;;;19.10;12.20;;;;;;;11.03;80.12;99877.92;104754;1267;101394;-78
2023/03/24 02:14:45;;;;;;;18.80;10.80;;;;;;;11.02;80.23;99879.00;104737;1270;99147;-77
2023/03/24 02:18:12;;;;;;;19.00;10.40;;;;;;;10.98;80.42;99876.02;104818;1269;99238;-77
2023/03/24 02:21:29;;;;;;;13.40;8.90;;;;;;;10.93;80.43;99879.20;104665;1264;99546;-76
2023/03/24 02:24:53;;;;;;;14.80;8.50;;;;;;;10.87;80.40;99882.59;104699;1264;98739;-75
2023/03/24 02:27:58;;;;;;;23.70;13.80;;;;;;;10.79;80.56;99880.72;104364;1273;102280;-75
2023/03/24 02:31:03;;;;;;;15.50;10.10;;;;;;;10.71;81.05;99880.59;104357;1275;100126;-75
2023/03/24 02:34:04;;;;;;;18.60;10.40;;;;;;;10.63;80.77;99881.70;104493;1279;99015;-75
2023/03/24 02:37:47;;;;;;;17.20;10.00;;;;;;;10.55;80.91;99882.02;104630;1269;99594;-77
2023/03/24 02:40:55;;;;;;;13.70;9.40;;;;;;;10.50;81.12;99881.42;104289;1277;98766;-77
2023/03/24 02:43:55;;;;;;;15.20;9.30;;;;;;;10.50;81.53;99883.45;104228;1274;102649;-76
2023/03/24 02:47:03;;;;;;;15.40;9.60;;;;;;;10.50;81.46;99889.14;104753;1268;100065;-78
2023/03/24 02:50:26;;;;;;;15.70;9.70;;;;;;;10.50;81.55;99889.55;104663;1264;98151;-75
2023/03/24 02:53:41;;;;;;;15.80;9.10;;;;;;;10.41;81.68;99896.23;104673;1270;97936;-76
2023/03/24 02:56:51;;;;;;;16.10;9.80;;;;;;;10.32;81.48;99898.73;104763;1267;97933;-75
2023/03/24 03:00:29;;;;;;;15.90;9.80;;;;;;;10.26;81.60;99894.85;104801;1269;101448;-77
2023/03/24 03:03:30;;;;;;;15.30;9.90;;;;;;;10.19;81.92;99898.86;104654;1270;100330;-76
2023/03/24 03:06:21;;;;;;;14.80;10.70;;;;;;;10.13;81.86;99899.42;104627;1270;99855;-76
2023/03/24 03:09:08;;;;;;;;;;;;;;;10.07;81.92;99895.70;104720;1267;97997;-76
2023/03/24 03:11:57;;;;;;;15.00;10.00;;;;;;;9.99;81.89;99894.93;104625;1270;98470;-76
2023/03/24 03:14:50;;;;;;;13.00;8.60;;;;;;;9.96;81.84;99901.05;104652;1269;101354;-76
2023/03/24 03:17:47;;;;;;;15.60;9.50;;;;;;;9.95;81.85;99900.39;105622;1264;99111;-75
2023/03/24 03:20:41;;;;;;;13.00;8.00;;;;;;;9.94;82.04;99897.95;104723;1271;99484;-76
2023/03/24 03:23:35;;;;;;;15.90;9.00;;;;;;;9.95;82.06;99894.88;104624;1269;99283;-77
2023/03/24 03:26:25;;;;;;;13.20;9.20;;;;;;;9.94;81.86;99893.38;104630;1269;97973;-76
2023/03/24 03:29:16;;;;;;;13.90;8.80;;;;;;;9.93;82.08;99889.35;105176;1265;102279;-76
2023/03/24 03:32:06;;;;;;;16.00;8.60;;;;;;;9.92;82.76;99884.77;105003;1267;101268;-76
2023/03/24 03:35:03;;;;;;;13.80;8.30;;;;;;;9.91;82.76;99880.94;104650;1270;97973;-77
2023/03/24 03:37:53;;;;;;;15.60;8.80;;;;;;;9.91;83.11;99881.61;104651;1264;98145;-76
2023/03/24 03:40:51;;;;;;;13.20;7.90;;;;;;;9.90;83.01;99878.97;104766;1269;97989;-77
2023/03/24 03:43:38;;;;;;;13.60;8.00;;;;;;;9.88;82.95;99875.50;105686;1264;102153;-77
2023/03/24 03:46:24;;;;;;;11.50;8.00;;;;;;;9.85;83.11;99873.48;106732;1264;100871;-76
2023/03/24 03:49:10;;;;;;;14.50;7.60;;;;;;;9.81;82.88;99876.84;104685;1267;99066;-75
2023/03/24 03:51:56;;;;;;;10.70;7.80;;;;;;;9.78;82.80;99877.88;104589;1269;99531;-76
2023/03/24 03:54:43;;;;;;;15.40;8.10;;;;;;;9.74;82.96;99883.13;104862;1269;97892;-76
2023/03/24 03:57:29;;;;;;;11.20;8.40;;;;;;;9.73;83.33;99881.73;104835;1269;102490;-75
2023/03/24 04:00:36;;;;;;;11.30;7.90;;;;;;;9.72;83.51;99880.95;104857;1271;100779;-76
2023/03/24 04:04:02;;;;;;;14.10;8.60;;;;;;;9.70;83.81;99880.89;104717;1270;98752;-76
2023/03/24 04:07:37;;;;;;;16.10;8.70;;;;;;;9.67;83.90;99879.84;104643;1265;99261;-75
2023/03/24 04:11:16;;;;;;;17.30;9.30;;;;;;;9.63;84.02;99878.17;104726;1268;98529;-77
2023/03/24 04:14:46;;;;;;;14.40;9.60;;;;;;;9.58;84.08;99869.39;104611;1267;101568;-76
2023/03/24 04:18:37;;;;;;;11.70;8.00;;;;;;;9.54;84.11;99868.10;104699;1270;99849;-75
2023/03/24 04:21:38;;;;;;;18.70;10.20;;;;;;;9.52;84.05;99857.75;104848;1264;97955;-77
2023/03/24 04:24:39;;;;;;;18.00;8.90;;;;;;;9.50;84.44;99861.51;104857;1267;98436;-75
2023/03/24 04:27:37;;;;;;;;;;;;;;;9.47;84.38;99859.40;104924;1265;98871;-76
2023/03/24 04:30:39;;;;;;;15.30;9.10;;;;;;;9.42;83.91;99859.94;104643;1269;102588;-77
2023/03/24 04:33:49;;;;;;;16.10;9.90;;;;;;;9.36;83.69;99858.33;104456;1271;99226;-77
2023/03/24 04:36:49;;;;;;;17.70;10.10;;;;;;;9.31;84.11;99851.80;104749;1268;98060;-77
2023/03/24 04:39:49;;;;;;;15.00;9.50;;;;;;;9.31;84.38;99845.80;104652;1269;97878;-77
2023/03/24 04:42:41;;;;;;;17.30;10.40;;;;;;;9.32;84.51;99843.43;104715;1268;99269;-76
2023/03/24 04:45:27;;;;;;;15.60;9.70;;;;;;;9.34;84.82;99840.64;104675;1279;101923;-75
2023/03/24 04:48:35;;;;;;;16.50;9.60;;;;;;;9.34;85.22;99834.21;104716;1264;99240;-75
2023/03/24 04:51:31;;;;;;;18.80;10.50;;;;;;;9.33;85.12;99829.90;104799;1265;98120;-77
2023/03/24 04:54:32;;;;;;;16.80;10.40;;;;;;;9.33;85.30;99838.78;104782;1269;98066;-76
2023/03/24 04:57:23;;;;;;;16.40;9.40;;;;;;;9.32;85.40;99838.56;104746;1269;97966;-75
2023/03/24 05:00:15;;;;;;;16.90;9.90;;;;;;;9.28;85.68;99835.34;104776;1265;101813;-77
2023/03/24 05:03:01;;;;;;;14.20;9.90;;;;;;;9.25;85.98;99835.48;105402;1265;99080;-76
2023/03/24 05:05:48;;;;;;;16.10;10.50;;;;;;;9.28;86.27;99831.48;104617;1282;98676;-75
2023/03/24 05:08:34;;;;;;;16.90;10.00;;;;;;;9.29;86.59;99822.70;104681;1270;99359;-76
2023/03/24 05:11:20;;;;;;;17.80;11.70;;;;;;;9.32;86.85;99827.14;104572;1267;97792;-77
2023/03/24 05:14:13;;;;;;;17.50;11.30;;;;;;;9.33;86.86;99830.58;104709;1267;102690;-76
2023/03/24 05:17:00;;;;;;;18.30;11.40;;;;;;;9.36;86.98;99829.77;104546;1266;100399;-77
2023/03/24 05:19:45;;;;;;;18.90;11.90;;;;;;;9.40;87.31;99833.48;104629;1264;97943;-77
2023/03/24 05:22:30;;;;;;;17.10;11.50;;;;;;;9.45;87.66;99828.94;104667;1265;97991;-75
2023/03/24 05:25:17;;;;;;;18.30;11.40;;;;;;;9.48;87.82;99824.02;104692;1270;98657;-77
2023/03/24 05:28:04;;;;;;;16.30;12.00;;;;;;;9.53;87.83;99819.36;104777;1265;102637;-77
2023/03/24 05:30:50;;;;;;;19.00;12.20;;;;;;;9.57;87.90;99817.43;104598;1287;100380;-75
2023/03/24 05:33:54;;;;;;;17.40;10.90;;;;;;;9.63;87.96;99810.96;104613;1265;98773;-77
2023/03/24 05:36:40;;;;;;;19.40;11.90;;;;;;;9.67;88.11;99805.94;104691;1266;99494;-77
2023/03/24 05:39:26;;;;;;;18.30;11.30;;;;;;;9.71;88.23;99802.77;104728;1270;98441;-76
2023/03/24 05:42:27;;;;;;;23.20;16.10;;;;;;;9.75;88.55;99802.08;104753;1270;103133;-77
2023/03/24 05:45:12;;;;;;;20.10;13.50;;;;;;;9.78;88.78;99804.60;104724;1264;99975;-76
2023/03/24 05:47:59;;;;;;;16.50;12.30;;;;;;;9.82;89.06;99807.63;104673;1265;107283;-77
2023/03/24 05:50:55;;;;;;;19.70;12.80;;;;;;;9.84;89.23;99805.56;104626;1269;98098;-77
2023/03/24 05:53:40;;;;;;;18.70;12.70;;;;;;;9.89;89.53;99804.35;104609;1264;98477;-76
2023/03/24 05:56:49;;;;;;;21.80;13.20;;;;;;;9.95;89.83;99801.69;104640;1265;103760;-75
2023/03/24 05:59:51;;;;;;;21.90;13.40;;;;;;;10.01;89.79;99800.42;104632;1266;100340;-76
2023/03/24 06:02:57;;;;;;;20.00;13.00;;;;;;;10.05;90.05;99798.17;104700;1267;99171;-75
2023/03/24 06:05:46;;;;;;;22.90;14.40;;;;;;;10.11;90.55;99794.45;104671;1264;97927;-77
2023/03/24 06:08:34;;;;;;;22.20;14.60;;;;;;;10.16;91.07;99794.40;104580;1269;99727;-76
2023/03/24 06:11:20;;;;;;;20.50;14.10;;;;;;;10.20;91.13;99791.16;104633;1265;102824;-75
2023/03/24 06:14:14;;;;;;;22.20;14.10;;;;;;;10.25;91.42;99791.37;104670;1265;99849;-76
2023/03/24 06:17:13;;;;;;;22.60;14.60;;;;;;;10.30;91.85;99788.86;104728;1269;98969;-76
2023/03/24 06:20:12;;;;;;;25.80;16.00;;;;;;;10.35;92.19;99791.17;104548;1266;99362;-75
2023/03/24 06:23:12;;;;;;;24.80;15.60;;;;;;;10.40;92.15;99793.89;104702;1265;97910;-77
2023/03/24 06:26:10;;;;;;;22.00;13.70;;;;;;;10.45;92.21;99792.17;104773;1268;102123;-76
2023/03/24 06:29:01;;;;;;;22.30;13.70;;;;;;;10.49;92.29;99790.19;105243;1265;99145;-75
2023/03/24 06:31:50;;;;;;;21.30;13.90;;;;;;;10.52;92.11;99784.79;104679;1270;99497;-76
2023/03/24 06:34:37;;;;;;;22.10;13.20;;;;;;;10.55;92.10;99783.96;104686;1268;98438;-76
2023/03/24 06:37:50;;;;;;;22.50;15.10;;;;;;;10.59;92.34;99782.89;104673;1264;98326;-76
2023/03/24 06:40:36;;;;;;;22.40;15.40;;;;;;;10.64;92.38;99784.58;104723;1269;102779;-77
2023/03/24 06:43:22;;;;;;;26.60;16.90;;;;;;;10.68;92.52;99785.94;104835;1265;99074;-75
2023/03/24 06:46:08;;;;;;;23.90;17.50;;;;;;;10.73;92.83;99788.00;104740;1265;99084;-77
2023/03/24 06:48:54;;;;;;;27.80;17.40;;;;;;;10.78;93.05;99788.77;104651;1265;99353;-76
2023/03/24 06:51:39;;;;;;;20.90;15.00;;;;;;;10.82;93.26;99787.63;104679;1266;98413;-76
2023/03/24 06:54:26;;;;;;;24.30;15.20;;;;;;;10.86;93.23;99784.73;104748;1265;101352;-75
2023/03/24 06:57:11;;;;;;;22.90;14.10;;;;;;;10.90;93.57;99785.71;104673;1265;100520;-75
2023/03/24 07:00:16;;;;;;;19.50;13.20;;;;;;;10.94;93.80;99787.11;104664;1270;98006;-77
2023/03/24 07:03:15;;;;;;;21.10;13.60;;;;;;;10.98;94.06;99788.09;104705;1270;97961;-76
2023/03/24 07:06:11;;;;;;;19.90;13.20;;;;;;;11.04;94.03;99786.85;104615;1266;100846;-77
2023/03/24 07:08:58;;;;;;;23.30;13.10;;;;;;;11.09;94.46;99788.25;104643;1265;101378;-76
2023/03/24 07:11:45;;;;;;;20.70;12.50;;;;;;;11.14;94.63;99794.93;104702;1268;100122;-76
2023/03/24 07:14:31;;;;;;;16.80;11.50;;;;;;;11.20;94.89;99799.05;106415;1268;98502;-76
2023/03/24 07:17:19;;;;;;;16.80;11.40;;;;;;;11.25;95.05;99794.96;104676;1265;99318;-75
2023/03/24 07:20:28;;;;;;;15.70;11.30;;;;;;;11.29;95.03;99794.21;104486;1268;97929;-76
2023/03/24 07:23:26;;;;;;;18.60;11.80;;;;;;;11.34;95.50;99795.30;104689;1265;109972;-76
2023/03/24 07:26:50;;;;;;;18.20;11.10;;;;;;;11.38;95.87;99790.25;104649;1265;99220;-75
2023/03/24 07:29:39;;;;;;;15.70;10.70;;;;;;;11.43;95.92;99783.35;104663;1268;99521;-77
2023/03/24 07:32:48;;;;;;;15.60;10.10;;;;;;;11.47;95.94;99779.87;104697;1264;98003;-75
2023/03/24 07:35:34;;;;;;;14.30;9.50;;;;;;;11.50;95.90;99777.21;104750;1265;98495;-74
2023/03/24 07:38:19;;;;;;;16.20;9.00;;;;;;;11.54;96.27;99775.63;104679;1268;103371;-77
2023/03/24 07:41:07;;;;;;;14.80;10.80;;;;;;;11.57;96.55;99772.28;104591;1269;99090;-75
2023/03/24 07:43:55;;;;;;;13.60;10.20;;;;;;;11.62;96.91;99772.02;104869;1269;98990;-78
2023/03/24 07:46:44;;;;;;;13.60;10.10;;;;;;;11.68;97.14;99766.23;105134;1270;97997;-77
2023/03/24 07:49:30;;;;;;;17.00;10.50;;;;;;;11.73;97.08;99757.95;104560;1266;98210;-76
2023/03/24 07:52:24;;;;;;;13.90;9.80;;;;;;;11.80;97.34;99751.69;104839;1268;101961;-77
2023/03/24 07:55:12;;;;;;;16.90;9.70;;;;;;;11.86;97.45;99749.92;104654;1265;99095;-77
2023/03/24 07:58:12;;;;;;;14.50;9.40;;;;;;;11.92;97.54;99749.75;104490;1267;98073;-76
2023/03/24 08:01:00;;;;;;;12.30;9.70;;;;;;;11.99;97.56;99746.20;104756;1264;97968;-76
2023/03/24 08:03:54;;;;;;;13.30;10.20;;;;;;;12.08;98.21;99744.19;104610;1264;98584;-77
2023/03/24 08:07:00;;;;;;;15.10;9.90;;;;;;;12.17;98.19;99745.90;105466;1265;102857;-83
2023/03/24 08:09:46;;;;;;;15.60;9.00;;;;;;;12.23;97.74;99740.04;105649;1265;100425;-87
2023/03/24 08:12:32;;;;;;;15.00;8.70;;;;;;;12.27;97.56;99735.96;105466;1265;98509;-83
2023/03/24 08:15:18;;;;;;;13.70;9.50;;;;;;;12.32;97.57;99723.08;105402;1265;97977;-85
2023/03/24 08:18:11;;;;;;;13.40;9.60;;;;;;;12.40;97.66;99715.29;105449;1269;96458;-84
2023/03/24 08:20:58;;;;;;;14.20;10.60;;;;;;;12.47;97.84;99708.48;105536;1267;102526;-84
2023/03/24 08:23:44;;;;;;;14.40;9.80;;;;;;;12.55;97.65;99703.79;105593;1270;99100;-85
2023/03/24 08:26:29;;;;;;;13.40;9.40;;;;;;;12.61;97.51;99687.48;105448;1265;98506;-85
2023/03/24 08:29:15;;;;;;;14.60;10.00;;;;;;;12.67;97.35;99677.83;105352;1268;97959;-85
2023/03/24 08:32:35;;;;;;;;;;;;;;;;;;;;;
2023/03/24 08:35:59;;;;;;;13.70;10.20;;;;;;;12.79;96.92;99676.42;106495;1264;101856;-86
2023/03/24 08:38:47;;;;;;;13.60;9.20;;;;;;;12.86;97.39;99666.46;105500;1265;99278;-86
2023/03/24 08:41:35;;;;;;;12.60;9.80;;;;;;;12.93;97.38;99662.23;105509;1267;108894;-90
2023/03/24 08:44:21;;;;;;;12.70;10.00;;;;;;;13.01;97.32;99654.79;105711;1265;97971;-85
2023/03/24 08:47:07;;;;;;;16.40;10.40;;;;;;;13.11;97.30;99655.09;105781;1265;98429;-82
2023/03/24 08:49:59;;;;;;;16.30;10.80;;;;;;;13.22;97.18;99655.63;105622;1266;101377;-84
2023/03/24 08:52:47;;;;;;;13.40;8.80;;;;;;;13.34;96.97;99653.36;105527;1264;99861;-85
2023/03/24 08:55:33;;;;;;;12.60;8.90;;;;;;;13.49;96.82;99652.41;105504;1264;98004;-83
2023/03/24 08:58:20;;;;;;;15.00;8.80;;;;;;;13.66;96.87;99651.33;105769;1267;98058;-84
2023/03/24 09:01:06;;;;;;;14.80;8.20;;;;;;;13.84;96.67;99646.52;105542;1264;97945;-85
2023/03/24 09:03:52;;;;;;;11.60;7.80;;;;;;;13.97;95.89;99640.92;105587;1268;103080;-85
2023/03/24 09:06:37;;;;;;;10.90;7.90;;;;;;;14.09;95.61;99643.05;105555;1270;101551;-83
2023/03/24 09:09:26;;;;;;;13.40;8.30;;;;;;;14.21;95.04;99641.19;105434;1265;99011;-77
2023/03/24 09:12:11;;;;;;;10.60;7.30;;;;;;;14.32;94.74;99631.13;104631;1266;98011;-76
2023/03/24 09:14:57;;;;;;;11.60;7.60;;;;;;;14.40;94.43;99625.63;104748;1269;98396;-76
2023/03/24 09:17:42;;;;;;;10.60;7.30;;;;;;;14.47;93.73;99616.62;104686;1265;102648;-75
2023/03/24 09:20:28;;;;;;;11.60;7.60;;;;;;;14.53;93.91;99618.95;104624;1269;101190;-77
2023/03/24 09:23:13;;;;;;;13.70;7.00;;;;;;;14.60;93.81;99616.30;104532;1270;98025;-77
2023/03/24 09:26:00;;;;;;;12.50;7.20;;;;;;;14.65;93.25;99616.73;104514;1265;97902;-76
2023/03/24 09:28:46;;;;;;;9.70;7.30;;;;;;;14.70;92.85;99613.66;104650;1270;97907;-77
2023/03/24 09:31:32;;;;;;;8.40;6.60;;;;;;;14.75;92.11;99610.75;104676;1266;101332;-77
2023/03/24 09:34:18;;;;;;;11.10;7.60;;;;;;;14.79;91.68;99609.48;104663;1265;99863;-76
2023/03/24 09:37:04;;;;;;;10.30;6.90;;;;;;;14.86;91.94;99598.41;104551;1268;100402;-77
2023/03/24 09:39:50;;;;;;;9.00;6.30;;;;;;;14.94;91.79;99595.35;104528;1270;98410;-77
2023/03/24 09:42:40;;;;;;;11.00;7.80;;;;;;;15.01;91.49;99594.77;104794;1265;99279;-76
2023/03/24 09:45:28;;;;;;;12.30;7.70;;;;;;;15.05;90.74;99594.70;105869;1270;101400;-76
2023/03/24 09:48:26;;;;;;;11.80;7.50;;;;;;;15.07;90.63;99594.32;104810;1270;100360;-78
2023/03/24 09:51:17;;;;;;;11.00;8.40;;;;;;;15.09;90.45;99589.77;104762;1265;98613;-75
2023/03/24 09:54:06;;;;;;;12.50;7.40;;;;;;;15.14;90.45;99589.11;104607;1270;97995;-75
2023/03/24 09:56:54;;;;;;;12.50;7.90;;;;;;;15.18;90.03;99585.78;104715;1271;99683;-76
2023/03/24 09:59:40;;;;;;;9.60;7.10;;;;;;;15.21;89.76;99580.14;105025;1270;102709;-76
2023/03/24 10:02:28;;;;;;;8.70;6.40;;;;;;;15.25;89.18;99572.34;104650;1265;99184;-77
2023/03/24 10:05:25;;;;;;;11.40;7.60;;;;;;;15.27;88.91;99567.14;104602;1271;98949;-77
2023/03/24 10:08:45;;;;;;;12.60;7.10;;;;;;;15.29;88.77;99567.75;104741;1265;98028;-76
2023/03/24 10:12:05;;;;;;;10.40;7.60;;;;;;;15.32;88.85;99564.05;104549;1268;99180;-76
2023/03/24 10:15:06;;;;;;;12.60;7.60;;;;;;;15.36;88.36;99559.42;104642;1269;103510;-76
2023/03/24 10:18:04;;;;;;;8.50;6.30;;;;;;;15.40;88.01;99555.06;104652;1264;99089;-77
2023/03/24 10:21:10;;;;;;;9.90;7.10;;;;;;;15.42;87.92;99554.96;104701;1271;98993;-76
2023/03/24 10:24:38;;;;;;;11.50;7.00;;;;;;;15.48;87.97;99553.98;104660;1268;99269;-76
2023/03/24 10:27:36;;;;;;;9.70;6.70;;;;;;;15.55;88.25;99556.10;104916;1266;97984;-77
2023/03/24 10:30:25;;;;;;;11.60;7.40;;;;;;;15.62;87.84;99553.85;104605;1266;102641;-76
2023/03/24 10:33:12;;;;;;;8.60;7.00;;;;;;;15.69;87.92;99551.92;104722;1268;99298;-77
2023/03/24 10:36:04;;;;;;;12.10;7.10;;;;;;;15.79;87.68;99553.26;104669;1270;97904;-76
2023/03/24 10:38:50;;;;;;;8.80;6.70;;;;;;;15.88;87.16;99559.84;104656;1270;99076;-76
2023/03/24 10:41:35;;;;;;;8.60;6.80;;;;;;;15.97;86.87;99557.75;104625;1268;153384;-77
2023/03/24 10:44:22;;;;;;;9.90;7.10;;;;;;;16.03;86.69;99560.55;104919;1265;103067;-77
2023/03/24 10:47:12;;;;;;;11.90;6.80;;;;;;;16.04;85.50;99560.19;104759;1269;98864;-75
2023/03/24 10:50:05;;;;;;;7.60;5.90;;;;;;;16.01;85.02;99559.45;104997;1268;99111;-77
2023/03/24 10:52:54;;;;;;;9.40;6.70;;;;;;;15.96;84.12;99558.02;105061;1265;97910;-86
2023/03/24 10:55:43;;;;;;;10.60;6.70;;;;;;;15.91;83.78;99557.20;105692;1265;97911;-86
2023/03/24 10:58:36;;;;;;;8.40;6.70;;;;;;;15.88;84.21;99553.84;105536;1265;101975;-84
2023/03/24 11:01:26;;;;;;;11.80;7.50;;;;;;;15.85;84.09;99553.91;105557;1265;99176;-81
2023/03/24 11:04:15;;;;;;;7.70;6.20;;;;;;;15.83;83.71;99554.30;105603;1265;98876;-82
2023/03/24 11:07:19;;;;;;;10.00;7.10;;;;;;;15.80;83.78;99553.98;105416;1271;97909;-84
2023/03/24 11:10:08;;;;;;;9.40;6.60;;;;;;;15.78;83.35;99549.48;105504;1271;97874;-85
2023/03/24 11:12:54;;;;;;;12.80;6.80;;;;;;;15.78;83.68;99545.04;105670;1264;102517;-83
2023/03/24 11:15:52;;;;;;;9.40;6.70;;;;;;;15.78;83.73;99543.32;105824;1268;99662;-80
2023/03/24 11:18:53;;;;;;;10.00;6.90;;;;;;;15.79;83.81;99534.86;105009;1264;98954;-76
2023/03/24 11:21:41;;;;;;;;;;;;;;;15.82;84.01;99536.95;105013;1270;98488;-85
2023/03/24 11:24:28;;;;;;;11.40;7.00;;;;;;;15.85;84.35;99535.59;105636;1268;99622;-83
2023/03/24 11:27:17;;;;;;;9.90;6.60;;;;;;;15.89;84.20;99528.09;105428;1265;102449;-84
2023/03/24 11:30:03;;;;;;;11.30;6.80;;;;;;;15.93;84.11;99524.91;105490;1267;100337;-85
2023/03/24 11:32:49;;;;;;;10.80;6.70;;;;;;;15.96;83.76;99520.00;105620;1265;98426;-87
2023/03/24 11:35:39;;;;;;;10.80;6.60;;;;;;;15.98;84.02;99514.42;105682;1265;97959;-83
2023/03/24 11:38:31;;;;;;;10.90;6.70;;;;;;;16.00;83.76;99509.73;105743;1265;97782;-82
2023/03/24 11:41:23;;;;;;;11.60;7.00;;;;;;;16.01;83.60;99508.14;105811;1265;101917;-88
2023/03/24 11:44:22;;;;;;;9.50;6.50;;;;;;;16.04;83.61;99503.58;105892;1270;100403;-87
2023/03/24 11:47:14;;;;;;;8.10;6.70;;;;;;;16.06;83.47;99499.57;105970;1269;99689;-86
2023/03/24 11:50:20;;;;;;;8.00;6.00;;;;;;;16.10;83.22;99494.65;105946;1265;97973;-87
2023/03/24 11:53:20;;;;;;;9.80;5.20;;;;;;;16.14;82.65;99493.52;105779;1265;97538;-87
2023/03/24 11:56:16;;;;;;;9.00;5.90;;;;;;;16.21;82.70;99479.34;105608;1270;101999;-85
2023/03/24 11:59:06;;;;;;;7.90;5.40;;;;;;;16.35;82.79;99472.22;105739;1264;100415;-84
2023/03/24 12:01:58;;;;;;;7.40;5.60;;;;;;;16.50;82.35;99472.21;105535;1267;97995;-81
2023/03/24 12:05:02;;;;;;;17.10;7.70;;;;;;;16.65;81.90;99468.66;105719;1265;98007;-81
2023/03/24 12:08:01;;;;;;;8.30;4.80;;;;;;;16.80;81.16;99461.96;105581;1271;98000;-85
2023/03/24 12:11:05;;;;;;;8.20;4.60;;;;;;;16.94;80.52;99456.42;105844;1269;101434;-87
2023/03/24 12:13:50;;;;;;;8.20;4.50;;;;;;;17.06;80.25;99447.62;105799;1264;99184;-83
2023/03/24 12:16:54;;;;;;;5.70;4.50;;;;;;;17.18;79.59;99437.45;105964;1265;99222;-88
2023/03/24 12:19:46;;;;;;;6.30;4.30;;;;;;;17.29;79.05;99433.80;105395;1272;98064;-76
2023/03/24 12:22:54;;;;;;;6.80;4.60;;;;;;;17.38;78.82;99427.50;104731;1268;98563;-84
2023/03/24 12:26:17;;;;;;;8.60;4.90;;;;;;;17.49;78.64;99432.15;105478;1266;101469;-84
2023/03/24 12:29:25;;;;;;;5.50;4.70;;;;;;;17.61;78.52;99436.14;105714;1270;99137;-86
2023/03/24 12:32:36;;;;;;;6.80;4.90;;;;;;;17.70;78.02;99435.45;105516;1264;97950;-77
2023/03/24 12:35:49;;;;;;;6.40;4.20;;;;;;;17.78;77.74;99433.71;104669;1265;99158;-76
2023/03/24 12:39:11;;;;;;;6.00;3.00;;;;;;;17.86;76.78;99431.27;104810;1264;97999;-77
2023/03/24 12:42:06;;;;;;;4.40;2.90;;;;;;;17.92;75.06;99421.98;104544;1271;101379;-76
2023/03/24 12:45:12;;;;;;;4.60;2.90;;;;;;;17.97;74.36;99417.39;106557;1264;99303;-77
2023/03/24 12:48:09;;;;;;;3.60;2.40;;;;;;;18.03;73.96;99420.20;104827;1264;98262;-76
2023/03/24 12:51:16;;;;;;;3.80;2.50;;;;;;;18.07;73.50;99413.27;104689;1265;98482;-77
2023/03/24 12:54:30;;;;;;;3.30;2.50;;;;;;;18.12;73.57;99413.52;104781;1268;97900;-75
2023/03/24 12:57:18;;;;;;;3.20;2.30;;;;;;;18.14;72.18;99408.16;104858;1269;103068;-74
2023/03/24 13:00:12;;;;;;;4.90;2.70;;;;;;;18.13;71.51;99403.82;104630;1271;100373;-75
2023/03/24 13:03:03;;;;;;;2.80;2.20;;;;;;;18.11;71.79;99400.34;104683;1265;99042;-75
2023/03/24 13:05:52;;;;;;;4.50;2.50;;;;;;;18.11;71.38;99398.44;104626;1265;97986;-75
2023/03/24 13:08:41;;;;;;;4.50;2.50;;;;;;;18.10;71.25;99396.80;104543;1267;98498;-77
2023/03/24 13:11:35;;;;;;;3.50;2.60;;;;;;;18.10;71.14;99393.13;104678;1265;102087;-77
2023/03/24 13:14:28;;;;;;;3.80;2.50;;;;;;;18.10;70.90;99387.50;104533;1265;99015;-76
2023/03/24 13:17:25;;;;;;;4.60;2.50;;;;;;;18.09;70.60;99384.72;105432;1265;99016;-85
2023/03/24 13:20:24;;;;;;;3.70;2.90;;;;;;;18.07;70.70;99385.73;105551;1269;97908;-84
2023/03/24 13:23:34;;;;;;;5.70;3.00;;;;;;;18.07;70.50;99379.17;105436;1267;98513;-84